createdAt,value
2023-01-23T14:22:44.705Z,5.35
2023-01-23T14:25:17.815Z,3.90
2023-01-23T14:27:54.356Z,3.97
2023-01-23T14:30:29.285Z,6.25
2023-01-23T14:32:58.402Z,5.40
2023-01-23T14:35:29.900Z,5.35
2023-01-23T14:38:00.670Z,6.45
2023-01-23T14:40:35.148Z,5.93
2023-01-23T14:43:08.912Z,12.20
2023-01-23T14:45:37.541Z,7.00
2023-01-23T14:48:07.976Z,6.55
2023-01-23T14:50:36.297Z,7.13
2023-01-23T14:53:06.372Z,6.70
2023-01-23T14:55:37.495Z,7.85
2023-01-23T14:58:05.448Z,7.53
2023-01-23T15:00:34.395Z,6.10
2023-01-23T15:03:04.446Z,5.50
2023-01-23T15:05:33.018Z,5.93
2023-01-23T15:08:17.168Z,6.55
2023-01-23T15:10:49.176Z,5.50
2023-01-23T15:13:34.412Z,6.82
2023-01-23T15:16:04.193Z,7.30
2023-01-23T15:18:35.549Z,6.13
2023-01-23T15:21:08.483Z,5.65
2023-01-23T15:23:40.526Z,5.88
2023-01-23T15:26:15.229Z,6.20
2023-01-23T15:28:49.037Z,6.28
2023-01-23T15:33:59.514Z,6.65
2023-01-23T15:36:31.728Z,6.70
2023-01-23T15:38:59.893Z,8.32
2023-01-23T15:41:45.072Z,7.93
2023-01-23T15:44:18.002Z,7.93
2023-01-23T15:46:45.676Z,9.45
2023-01-23T15:49:24.938Z,11.05
2023-01-23T15:51:55.176Z,10.07
2023-01-23T15:54:39.205Z,9.00
2023-01-23T15:57:08.189Z,9.90
2023-01-23T15:59:36.678Z,11.30
2023-01-23T16:02:12.861Z,8.23
2023-01-23T16:04:44.804Z,10.25
2023-01-23T16:07:22.013Z,8.98
2023-01-23T16:09:50.663Z,8.13
2023-01-23T16:12:21.265Z,10.07
2023-01-23T16:14:49.183Z,8.75
2023-01-23T16:17:18.073Z,7.82
2023-01-23T16:19:45.685Z,8.52
2023-01-23T16:22:18.215Z,8.05
2023-01-23T16:24:45.522Z,8.88
2023-01-23T16:27:21.481Z,8.25
2023-01-23T16:29:50.664Z,5.47
2023-01-23T16:32:17.690Z,7.65
2023-01-23T16:34:44.964Z,6.60
2023-01-23T16:37:17.996Z,6.88
2023-01-23T16:39:46.894Z,7.38
2023-01-23T16:42:25.163Z,5.28
2023-01-23T16:44:52.330Z,4.95
2023-01-23T16:47:19.517Z,6.95
2023-01-23T16:49:54.431Z,6.47
2023-01-23T16:52:25.334Z,6.18
2023-01-23T16:54:54.066Z,6.80
2023-01-23T16:57:21.644Z,7.13
2023-01-23T16:59:50.182Z,5.82
2023-01-23T17:02:22.112Z,5.93
2023-01-23T17:04:49.572Z,6.07
2023-01-23T17:07:19.014Z,5.45
2023-01-23T17:09:47.715Z,6.07
2023-01-23T17:12:21.598Z,6.00
2023-01-23T17:14:50.309Z,6.20
2023-01-23T17:17:25.606Z,5.45
2023-01-23T17:19:53.173Z,20.13
2023-01-23T17:22:30.698Z,13.32
2023-01-23T17:24:57.777Z,7.75
2023-01-23T17:27:24.968Z,6.53
2023-01-23T17:29:52.013Z,8.43
2023-01-23T17:32:35.975Z,7.43
2023-01-23T17:35:06.903Z,7.40
2023-01-23T17:37:35.379Z,5.65
2023-01-23T17:40:02.741Z,5.97
2023-01-23T17:42:30.161Z,6.05
2023-01-23T17:44:57.312Z,5.85
2023-01-23T17:47:24.457Z,8.32
2023-01-23T17:49:54.918Z,11.60
2023-01-23T17:52:22.148Z,8.13
2023-01-23T17:54:49.729Z,8.93
2023-01-23T17:57:16.986Z,7.18
2023-01-23T17:59:44.449Z,4.15
2023-01-23T18:02:26.288Z,6.80
2023-01-23T18:04:53.587Z,4.68
2023-01-23T18:07:22.032Z,5.90
2023-01-23T18:09:49.070Z,5.95
2023-01-23T18:12:27.454Z,6.15
2023-01-23T18:15:10.288Z,6.78
2023-01-23T18:17:55.383Z,6.22
2023-01-23T18:20:23.896Z,6.25
2023-01-23T18:22:51.661Z,5.90
2023-01-23T18:25:20.167Z,6.13
2023-01-23T18:27:53.413Z,7.18
2023-01-23T18:30:33.931Z,4.60
2023-01-23T18:33:10.473Z,8.90
2023-01-23T18:35:37.491Z,4.68
2023-01-23T18:38:19.413Z,7.50
2023-01-23T18:41:27.632Z,4.63
2023-01-23T18:44:01.921Z,5.13
2023-01-23T18:46:30.153Z,9.05
2023-01-23T18:48:57.446Z,6.72
2023-01-23T18:51:32.009Z,6.38
2023-01-23T18:54:12.036Z,4.13
2023-01-23T18:57:02.013Z,6.55
2023-01-23T18:59:44.519Z,7.53
2023-01-23T19:02:53.225Z,6.15
2023-01-23T19:05:35.381Z,5.97
2023-01-23T19:08:03.352Z,5.97
2023-01-23T19:10:48.131Z,6.30
2023-01-23T19:13:42.890Z,5.43
2023-01-23T19:16:31.652Z,5.97
2023-01-23T19:19:15.747Z,5.30
2023-01-23T19:21:46.232Z,5.43
2023-01-23T19:24:18.291Z,5.85
2023-01-23T19:26:45.939Z,5.57
2023-01-23T19:29:23.047Z,6.20
2023-01-23T19:32:06.903Z,6.75
2023-01-23T19:34:35.797Z,5.70
2023-01-23T19:37:03.815Z,4.97
2023-01-23T19:39:30.996Z,7.38
2023-01-23T19:41:58.770Z,5.78
2023-01-23T19:44:29.044Z,7.38
2023-01-23T19:46:56.357Z,7.15
2023-01-23T19:49:23.374Z,7.63
2023-01-23T19:51:50.544Z,6.40
2023-01-23T19:54:17.632Z,5.80
2023-01-23T19:56:44.740Z,6.32
2023-01-23T19:59:14.144Z,5.22
2023-01-23T20:01:46.693Z,7.40
2023-01-23T20:04:20.836Z,6.90
2023-01-23T20:06:52.959Z,5.95
2023-01-23T20:09:21.726Z,7.80
2023-01-23T20:11:49.288Z,5.38
2023-01-23T20:14:16.589Z,4.45
2023-01-23T20:16:43.903Z,6.45
2023-01-23T20:19:14.533Z,4.90
2023-01-23T20:21:45.944Z,5.97
2023-01-23T20:24:15.284Z,6.35
2023-01-23T20:26:43.610Z,6.20
2023-01-23T20:29:12.176Z,5.35
2023-01-23T20:31:39.332Z,4.38
2023-01-23T20:34:07.353Z,4.28
2023-01-23T20:36:34.852Z,4.30
2023-01-23T20:39:02.162Z,4.68
2023-01-23T20:41:29.277Z,4.50
2023-01-23T20:43:56.410Z,5.63
2023-01-23T20:46:23.570Z,6.15
2023-01-23T20:48:50.566Z,5.40
2023-01-23T20:51:17.782Z,4.95
2023-01-23T20:53:45.532Z,4.20
2023-01-23T20:56:19.023Z,5.38
2023-01-23T20:59:08.542Z,3.90
2023-01-23T21:01:56.695Z,5.05
2023-01-23T21:04:26.257Z,4.00
2023-01-23T21:06:53.366Z,4.32
2023-01-23T21:09:20.503Z,4.72
2023-01-23T21:11:50.020Z,4.60
2023-01-23T21:14:17.951Z,3.92
2023-01-23T21:16:45.283Z,4.30
2023-01-23T21:19:12.335Z,3.97
2023-01-23T21:21:39.559Z,3.72
2023-01-23T21:24:07.636Z,3.83
2023-01-23T21:26:37.666Z,4.60
2023-01-23T21:29:05.595Z,4.75
2023-01-23T21:31:35.739Z,5.03
2023-01-23T21:34:05.158Z,5.72
2023-01-23T21:36:32.423Z,4.18
2023-01-23T21:39:02.602Z,3.78
2023-01-23T21:41:29.944Z,3.40
2023-01-23T21:43:58.241Z,3.25
2023-01-23T21:46:25.679Z,4.00
2023-01-23T21:48:52.808Z,3.90
2023-01-23T21:51:22.106Z,3.28
2023-01-23T21:53:50.286Z,4.05
2023-01-23T21:56:20.512Z,3.53
2023-01-23T21:58:48.985Z,3.85
2023-01-23T22:01:32.699Z,3.78
2023-01-23T22:04:24.119Z,4.05
2023-01-23T22:06:55.447Z,3.92
2023-01-23T22:09:25.004Z,4.43
2023-01-23T22:11:52.508Z,4.63
2023-01-23T22:14:19.792Z,4.18
2023-01-23T22:16:49.479Z,4.40
2023-01-23T22:19:24.989Z,4.40
2023-01-23T22:21:57.317Z,4.60
2023-01-23T22:24:24.725Z,4.45
2023-01-23T22:26:52.349Z,5.13
2023-01-23T22:29:19.659Z,6.18
2023-01-23T22:31:47.084Z,4.28
2023-01-23T22:34:14.227Z,4.57
2023-01-23T22:36:41.378Z,5.95
2023-01-23T22:39:08.403Z,5.78
2023-01-23T22:41:36.278Z,5.78
2023-01-23T22:44:03.315Z,5.50
2023-01-23T22:46:32.279Z,4.28
2023-01-23T22:48:59.571Z,4.80
2023-01-23T22:51:28.287Z,4.82
2023-01-23T22:53:56.655Z,3.90
2023-01-23T22:56:25.313Z,3.13
2023-01-23T22:58:54.541Z,4.93
2023-01-23T23:01:27.377Z,5.15
2023-01-23T23:03:57.305Z,4.30
2023-01-23T23:06:25.518Z,5.47
2023-01-23T23:08:52.833Z,4.72
2023-01-23T23:11:22.868Z,5.00
2023-01-23T23:13:51.030Z,4.93
2023-01-23T23:16:22.176Z,5.40
2023-01-23T23:18:52.245Z,5.00
2023-01-23T23:21:23.448Z,5.53
2023-01-23T23:23:51.373Z,5.20
2023-01-23T23:26:18.756Z,5.25
2023-01-23T23:28:45.891Z,11.15
2023-01-23T23:31:12.916Z,9.18
2023-01-23T23:33:39.928Z,20.25
2023-01-23T23:36:07.898Z,20.30
2023-01-23T23:38:35.440Z,11.57
2023-01-23T23:41:07.956Z,9.45
2023-01-23T23:43:35.454Z,25.58
2023-01-23T23:46:05.136Z,33.78
2023-01-23T23:48:33.593Z,31.48
2023-01-23T23:51:02.736Z,25.05
2023-01-23T23:53:30.908Z,9.27
2023-01-23T23:55:57.973Z,8.75
2023-01-23T23:58:25.203Z,6.50
